Time;durP1;ratioP1;P1;durP2;ratioP2;P2;SDS_P1;SDS_P2;PMS_P1;PMS_P2;Temp;Humidity;BMP_temperature;BMP_pressure;BME280_temperature;BME280_humidity;BME280_pressure;Samples;Min_cycle;Max_cycle;Signal;HPM_P1;HPM_P2
2023/09/25 00:02:15;;;;;;;4.20;1.73;;;;;;;14.82;100.00;102028.97;5269548;28;20065;-73
2023/09/25 00:04:46;;;;;;;3.50;1.60;;;;;;;14.80;100.00;102031.72;5267232;28;20043;-75
2023/09/25 00:07:17;;;;;;;2.90;1.70;;;;;;;14.81;100.00;102040.47;5268821;28;20028;-74
2023/09/25 00:09:49;;;;;;;2.85;1.80;;;;;;;14.77;100.00;102042.56;5270160;28;20044;-76
2023/09/25 00:12:21;;;;;;;3.08;1.67;;;;;;;14.73;100.00;102038.47;5271846;28;20028;-73
2023/09/25 00:14:52;;;;;;;4.07;2.20;;;;;;;14.73;100.00;102041.09;5270072;28;20024;-76
2023/09/25 00:17:24;;;;;;;3.67;1.85;;;;;;;14.71;100.00;102042.22;5269104;28;20591;-73
2023/09/25 00:19:55;;;;;;;6.70;1.98;;;;;;;14.62;100.00;102030.59;5271655;28;20036;-77
2023/09/25 00:22:26;;;;;;;2.63;1.73;;;;;;;14.67;100.00;102041.63;5269234;28;20075;-73
2023/09/25 00:24:57;;;;;;;2.67;1.60;;;;;;;14.64;100.00;102044.50;5270626;28;20036;-75
2023/09/25 00:27:31;;;;;;;4.35;1.60;;;;;;;14.64;100.00;102047.16;5270810;28;20054;-76
2023/09/25 00:30:06;;;;;;;2.45;1.80;;;;;;;14.59;100.00;102052.81;5271993;28;20289;-74
2023/09/25 00:32:37;;;;;;;3.10;1.65;;;;;;;14.59;100.00;102054.63;5268442;28;20437;-76
2023/09/25 00:35:10;;;;;;;3.38;1.85;;;;;;;14.60;100.00;102041.28;5269330;28;20111;-73
2023/09/25 00:37:41;;;;;;;3.47;1.63;;;;;;;14.59;100.00;102044.91;5269462;28;20250;-76
2023/09/25 00:40:18;;;;;;;4.68;1.70;;;;;;;14.53;100.00;102047.22;5269078;28;20025;-73
2023/09/25 00:42:56;;;;;;;3.38;1.85;;;;;;;14.47;100.00;102048.53;5269533;28;20029;-76
2023/09/25 00:45:28;;;;;;;2.85;1.70;;;;;;;14.46;100.00;102046.00;5271581;28;20344;-73
2023/09/25 00:48:00;;;;;;;4.00;2.13;;;;;;;14.47;100.00;102050.31;5269578;28;20028;-77
2023/09/25 00:50:32;;;;;;;2.75;1.75;;;;;;;14.44;100.00;102050.56;5272039;28;20370;-76
2023/09/25 00:53:07;;;;;;;2.80;1.60;;;;;;;14.37;100.00;102044.97;5269677;28;20549;-73
2023/09/25 00:55:39;;;;;;;3.30;1.88;;;;;;;14.36;100.00;102043.31;5269761;28;20070;-73
2023/09/25 00:58:11;;;;;;;2.58;1.45;;;;;;;14.41;100.00;102056.09;5269945;28;20025;-75
2023/09/25 01:00:43;;;;;;;3.75;1.65;;;;;;;14.36;100.00;102052.03;5271997;28;20448;-75
2023/09/25 01:03:14;;;;;;;3.25;1.77;;;;;;;14.31;100.00;102046.28;5272772;28;20047;-77
2023/09/25 01:05:46;;;;;;;3.00;1.90;;;;;;;14.25;100.00;102038.91;5275260;28;20021;-73
2023/09/25 01:08:17;;;;;;;2.88;1.65;;;;;;;14.24;100.00;102045.09;5272164;28;20024;-73
2023/09/25 01:10:49;;;;;;;4.00;1.60;;;;;;;14.20;100.00;102051.59;5274914;28;20393;-72
2023/09/25 01:13:21;;;;;;;4.90;2.30;;;;;;;14.22;100.00;102065.50;5270993;28;20025;-76
2023/09/25 01:15:52;;;;;;;5.03;1.90;;;;;;;14.19;100.00;102057.84;5274164;28;20438;-73
2023/09/25 01:18:23;;;;;;;4.03;1.70;;;;;;;14.18;100.00;102058.81;5273426;28;20025;-74
2023/09/25 01:20:55;;;;;;;3.45;1.58;;;;;;;14.16;100.00;102055.44;5275303;28;20036;-73
2023/09/25 01:23:26;;;;;;;2.58;1.50;;;;;;;14.13;100.00;102060.97;5272141;28;20032;-73
2023/09/25 01:25:57;;;;;;;3.25;1.70;;;;;;;14.18;100.00;102050.91;5273937;28;20055;-75
2023/09/25 01:28:29;;;;;;;5.45;2.10;;;;;;;14.15;100.00;102045.88;5272670;28;20024;-73
2023/09/25 01:31:00;;;;;;;3.47;2.08;;;;;;;14.13;100.00;102050.44;5269134;28;20036;-77
2023/09/25 01:33:32;;;;;;;3.08;1.88;;;;;;;14.13;100.00;102042.53;5272499;28;20131;-74
2023/09/25 01:36:04;;;;;;;2.95;1.70;;;;;;;14.09;100.00;102046.34;5268518;28;20032;-73
2023/09/25 01:38:35;;;;;;;5.15;1.90;;;;;;;14.05;100.00;102039.66;5274008;28;20251;-72
2023/09/25 01:41:06;;;;;;;5.72;1.95;;;;;;;14.05;100.00;102042.28;5273961;28;20036;-73
2023/09/25 01:43:37;;;;;;;2.85;1.80;;;;;;;14.02;100.00;102042.56;5272211;28;20024;-72
2023/09/25 01:46:09;;;;;;;4.50;1.83;;;;;;;13.98;100.00;102043.72;5274268;28;20032;-73
2023/09/25 01:48:40;;;;;;;4.47;2.00;;;;;;;13.98;100.00;102035.84;5271818;28;20021;-74
2023/09/25 01:51:11;;;;;;;3.60;1.63;;;;;;;13.97;100.00;102044.72;5272703;28;20032;-73
2023/09/25 01:53:46;;;;;;;3.50;1.98;;;;;;;13.94;100.00;102043.19;5272947;28;20509;-73
2023/09/25 01:56:17;;;;;;;4.03;1.75;;;;;;;13.94;100.00;102037.91;5270583;28;20048;-76
2023/09/25 01:58:48;;;;;;;3.25;1.92;;;;;;;13.85;100.00;102028.09;5271507;28;20032;-74
2023/09/25 02:01:19;;;;;;;3.10;1.92;;;;;;;13.92;100.00;102036.34;5273604;28;20107;-73
2023/09/25 02:03:51;;;;;;;3.20;2.03;;;;;;;13.90;100.00;102031.19;5273672;28;20044;-73
2023/09/25 02:06:22;;;;;;;6.00;2.20;;;;;;;13.93;100.00;102036.22;5272037;28;20035;-75
2023/09/25 02:08:53;;;;;;;4.00;2.08;;;;;;;13.88;100.00;102033.94;5266954;28;20036;-74
2023/09/25 02:11:25;;;;;;;3.35;1.90;;;;;;;13.86;100.00;102025.34;5267552;28;20036;-73
2023/09/25 02:13:56;;;;;;;4.35;2.10;;;;;;;13.86;100.00;102032.38;5272149;28;20039;-74
2023/09/25 02:16:27;;;;;;;3.92;1.98;;;;;;;13.82;100.00;102028.31;5273114;28;20475;-74
2023/09/25 02:19:00;;;;;;;3.83;1.95;;;;;;;13.86;100.00;102019.22;5273005;28;20036;-73
2023/09/25 02:21:31;;;;;;;5.05;2.60;;;;;;;13.80;100.00;102027.63;5275271;28;20024;-73
2023/09/25 02:24:03;;;;;;;3.88;1.98;;;;;;;13.79;100.00;102026.78;5271306;28;20044;-74
2023/09/25 02:26:34;;;;;;;5.28;2.10;;;;;;;13.83;100.00;102022.13;5273759;28;20021;-72
2023/09/25 02:29:05;;;;;;;3.40;1.77;;;;;;;13.81;100.00;102022.22;5273808;28;20029;-72
2023/09/25 02:31:36;;;;;;;2.97;1.77;;;;;;;13.78;100.00;102022.47;5272746;28;20020;-73
2023/09/25 02:34:14;;;;;;;5.68;2.10;;;;;;;13.77;100.00;102023.44;5273085;28;20040;-73
2023/09/25 02:36:45;;;;;;;4.28;1.90;;;;;;;13.79;100.00;102023.31;5275021;28;20024;-74
2023/09/25 02:39:16;;;;;;;3.80;2.03;;;;;;;13.78;100.00;102022.47;5274017;28;20381;-72
2023/09/25 02:41:48;;;;;;;3.38;2.10;;;;;;;13.77;100.00;102020.78;5270989;28;20036;-74
2023/09/25 02:44:19;;;;;;;3.85;2.17;;;;;;;13.78;100.00;102027.72;5273601;28;20107;-73
2023/09/25 02:46:50;;;;;;;2.72;1.83;;;;;;;13.76;100.00;102024.41;5273352;28;20040;-74
2023/09/25 02:49:21;;;;;;;3.67;1.70;;;;;;;13.80;100.00;102025.00;5273414;28;20101;-74
2023/09/25 02:51:53;;;;;;;4.10;1.98;;;;;;;13.80;100.00;102025.81;5272611;28;20497;-73
2023/09/25 02:54:24;;;;;;;4.40;1.90;;;;;;;13.79;100.00;102021.53;5271179;28;20024;-74
2023/09/25 02:56:55;;;;;;;4.10;2.20;;;;;;;13.78;100.00;102021.63;5271947;28;20035;-73
2023/09/25 02:59:26;;;;;;;3.05;1.90;;;;;;;13.78;100.00;102025.09;5271247;28;20040;-74
2023/09/25 03:01:58;;;;;;;2.70;1.90;;;;;;;13.76;100.00;102018.28;5272248;28;20032;-72
2023/09/25 03:04:29;;;;;;;4.72;2.13;;;;;;;13.76;100.00;102016.50;5272243;28;20044;-72
2023/09/25 03:07:01;;;;;;;3.40;2.05;;;;;;;13.79;100.00;102018.06;5271968;28;20017;-73
2023/09/25 03:09:32;;;;;;;3.40;1.83;;;;;;;13.77;100.00;102018.16;5273048;28;20032;-72
2023/09/25 03:12:04;;;;;;;4.03;2.08;;;;;;;13.81;100.00;102024.84;5273293;28;20553;-73
2023/09/25 03:14:35;;;;;;;4.00;2.20;;;;;;;13.72;100.00;102020.34;5272055;28;20032;-72
2023/09/25 03:17:06;;;;;;;4.47;2.00;;;;;;;13.69;100.00;102020.56;5272788;28;20577;-74
2023/09/25 03:19:38;;;;;;;3.75;2.10;;;;;;;13.67;100.00;102024.28;5273851;28;20451;-74
2023/09/25 03:22:09;;;;;;;4.10;1.75;;;;;;;13.66;100.00;102020.81;5270989;28;20392;-74
2023/09/25 03:24:40;;;;;;;4.75;2.40;;;;;;;13.67;100.00;102025.09;5272069;28;20030;-73
2023/09/25 03:27:13;;;;;;;6.75;2.47;;;;;;;13.66;100.00;102020.81;5271482;28;20766;-74
2023/09/25 03:29:44;;;;;;;4.72;2.40;;;;;;;13.67;100.00;102025.09;5273050;28;20032;-74
2023/09/25 03:32:15;;;;;;;4.18;2.20;;;;;;;13.66;100.00;102020.81;5269371;28;20028;-73
2023/09/25 03:34:47;;;;;;;2.97;1.85;;;;;;;13.70;100.00;102013.50;5272372;28;20028;-74
2023/09/25 03:37:18;;;;;;;4.15;2.38;;;;;;;13.62;100.00;102020.22;5271190;28;20393;-74
2023/09/25 03:39:49;;;;;;;3.92;2.10;;;;;;;13.68;100.00;102016.28;5271866;28;20034;-71
2023/09/25 03:42:21;;;;;;;3.20;1.98;;;;;;;13.64;100.00;102012.22;5269588;28;20047;-72
2023/09/25 03:44:52;;;;;;;3.75;2.03;;;;;;;13.68;100.00;102012.81;5269702;28;20111;-75
2023/09/25 03:47:23;;;;;;;3.88;2.50;;;;;;;13.70;100.00;102016.97;5270923;28;20027;-73
2023/09/25 03:49:55;;;;;;;4.28;2.25;;;;;;;13.63;100.00;102007.88;5271955;28;20028;-73
2023/09/25 03:52:27;;;;;;;4.30;2.15;;;;;;;13.69;100.00;102022.38;5270284;28;20036;-71
2023/09/25 03:54:58;;;;;;;4.35;2.05;;;;;;;13.66;100.00;102018.19;5270443;28;20035;-74
2023/09/25 03:57:29;;;;;;;3.40;2.00;;;;;;;13.68;100.00;102020.69;5271321;28;20702;-72
2023/09/25 04:00:01;;;;;;;4.45;2.10;;;;;;;13.67;100.00;102029.53;5270599;28;20562;-74
2023/09/25 04:02:32;;;;;;;4.07;2.10;;;;;;;13.65;100.00;102026.22;5269410;28;20496;-74
2023/09/25 04:05:03;;;;;;;8.90;2.10;;;;;;;13.66;100.00;102026.06;5272065;28;20028;-73
2023/09/25 04:07:35;;;;;;;3.35;2.10;;;;;;;13.61;100.00;102021.19;5268881;28;20047;-74
2023/09/25 04:10:07;;;;;;;4.30;2.15;;;;;;;13.63;100.00;102031.56;5269828;28;20149;-71
2023/09/25 04:12:38;;;;;;;4.20;2.53;;;;;;;13.67;100.00;102033.00;5271025;28;20500;-74
2023/09/25 04:15:14;;;;;;;3.67;2.13;;;;;;;13.66;100.00;102033.97;5272400;28;20040;-71
2023/09/25 04:17:45;;;;;;;3.92;2.22;;;;;;;13.65;100.00;102029.66;5271980;28;20027;-74
2023/09/25 04:20:24;;;;;;;4.75;2.00;;;;;;;13.66;100.00;102039.25;5269088;28;20032;-72
2023/09/25 04:22:58;;;;;;;3.85;2.42;;;;;;;13.63;100.00;102034.22;5271363;28;20028;-73
2023/09/25 04:25:29;;;;;;;3.53;2.17;;;;;;;13.66;100.00;102026.06;5271963;28;20487;-73
2023/09/25 04:28:01;;;;;;;5.25;2.67;;;;;;;13.66;100.00;102023.44;5270066;28;20012;-72
2023/09/25 04:30:32;;;;;;;3.50;2.13;;;;;;;13.63;100.00;102028.94;5272227;28;20025;-74
2023/09/25 04:33:03;;;;;;;4.00;2.20;;;;;;;13.61;100.00;102031.72;5270385;28;20397;-73
2023/09/25 04:35:36;;;;;;;5.10;2.03;;;;;;;13.66;100.00;102033.13;5269046;28;20029;-73
2023/09/25 04:38:08;;;;;;;3.15;1.98;;;;;;;13.66;100.00;102033.97;5270273;28;20508;-72
2023/09/25 04:40:45;;;;;;;3.80;1.90;;;;;;;13.65;100.00;102031.47;5271659;28;20033;-72
2023/09/25 04:43:17;;;;;;;4.00;2.05;;;;;;;13.67;100.00;102043.53;5270490;28;20508;-72
2023/09/25 04:45:55;;;;;;;4.50;1.85;;;;;;;13.69;100.00;102038.16;5270029;28;20378;-74
2023/09/25 04:48:26;;;;;;;3.15;1.85;;;;;;;13.73;100.00;102040.44;5268510;28;20013;-73
2023/09/25 04:50:57;;;;;;;5.15;2.35;;;;;;;13.77;100.00;102041.88;5269962;28;20043;-75
2023/09/25 04:53:29;;;;;;;4.22;1.80;;;;;;;13.80;100.00;102038.16;5263423;28;20024;-74
2023/09/25 04:56:01;;;;;;;5.13;2.20;;;;;;;13.78;100.00;102046.16;5271084;28;20021;-74
2023/09/25 04:58:32;;;;;;;6.75;2.30;;;;;;;13.82;100.00;102047.59;5269280;28;20066;-72
2023/09/25 05:01:03;;;;;;;3.88;2.03;;;;;;;13.83;100.00;102045.81;5265403;28;20412;-75
2023/09/25 05:03:34;;;;;;;3.28;2.15;;;;;;;13.83;100.00;102043.19;5267927;28;20029;-75
2023/09/25 05:06:11;;;;;;;5.28;2.30;;;;;;;13.91;100.00;102042.59;5268792;28;20146;-74
2023/09/25 05:08:43;;;;;;;4.63;2.30;;;;;;;13.82;100.00;102042.31;5270481;28;20078;-74
2023/09/25 05:11:15;;;;;;;3.97;2.10;;;;;;;13.81;100.00;102045.09;5271424;28;20033;-75
2023/09/25 05:13:46;;;;;;;7.40;2.30;;;;;;;13.82;100.00;102044.13;5268466;28;20077;-72
2023/09/25 05:16:17;;;;;;;3.13;1.90;;;;;;;13.79;100.00;102042.59;5270975;28;20415;-74
2023/09/25 05:18:49;;;;;;;4.85;1.80;;;;;;;13.82;100.00;102047.59;5270567;28;20031;-74
2023/09/25 05:21:20;;;;;;;3.78;2.08;;;;;;;13.80;100.00;102057.44;5269218;28;20115;-73
2023/09/25 05:23:52;;;;;;;4.35;2.20;;;;;;;13.82;100.00;102050.22;5269376;28;20048;-74
2023/09/25 05:26:23;;;;;;;4.18;1.80;;;;;;;13.84;100.00;102055.41;5270371;28;20037;-72
2023/09/25 05:28:55;;;;;;;4.38;2.25;;;;;;;13.84;100.00;102053.59;5268247;28;20036;-74
2023/09/25 05:31:27;;;;;;;3.83;1.80;;;;;;;13.77;100.00;102060.31;5266685;28;20028;-74
2023/09/25 05:33:58;;;;;;;5.15;2.08;;;;;;;13.77;100.00;102055.03;5270690;28;20032;-74
2023/09/25 05:36:29;;;;;;;4.43;2.00;;;;;;;13.81;100.00;102063.53;5271010;28;20016;-73
2023/09/25 05:39:00;;;;;;;4.35;2.08;;;;;;;13.79;100.00;102054.94;5269550;28;20029;-72
2023/09/25 05:41:31;;;;;;;3.90;2.20;;;;;;;13.80;100.00;102060.06;5266049;28;20016;-74
2023/09/25 05:44:03;;;;;;;6.35;2.33;;;;;;;13.85;100.00;102060.53;5269541;28;20328;-74
2023/09/25 05:46:36;;;;;;;4.75;2.63;;;;;;;13.81;100.00;102064.38;5271339;28;20027;-72
2023/09/25 05:49:08;;;;;;;8.88;2.30;;;;;;;13.70;100.00;102056.47;5270763;28;20486;-74
2023/09/25 05:51:39;;;;;;;5.93;1.98;;;;;;;13.79;100.00;102061.03;5272335;28;20101;-72
2023/09/25 05:54:10;;;;;;;4.72;2.80;;;;;;;13.83;100.00;102072.16;5267138;28;20127;-74
2023/09/25 05:56:41;;;;;;;4.55;2.05;;;;;;;13.83;100.00;102059.00;5272506;28;20039;-74
2023/09/25 05:59:13;;;;;;;4.43;2.40;;;;;;;13.79;100.00;102071.56;5276612;28;20040;-73
2023/09/25 06:01:45;;;;;;;4.25;2.00;;;;;;;13.85;100.00;102068.44;5276502;28;20119;-73
2023/09/25 06:04:17;;;;;;;4.72;2.20;;;;;;;13.90;100.00;102069.84;5274272;28;20060;-73
2023/09/25 06:06:48;;;;;;;3.17;1.98;;;;;;;13.90;100.00;102067.22;5268341;28;20025;-73
2023/09/25 06:09:20;;;;;;;4.43;2.08;;;;;;;13.95;100.00;102073.81;5263047;28;20045;-74
2023/09/25 06:11:51;;;;;;;3.33;1.90;;;;;;;13.99;100.00;102079.69;5271478;28;20032;-74
2023/09/25 06:14:22;;;;;;;2.65;1.90;;;;;;;14.03;100.00;102075.84;5275662;28;20111;-74
2023/09/25 06:16:56;;;;;;;3.65;1.98;;;;;;;14.05;100.00;102072.13;5275022;28;20025;-74
2023/09/25 06:19:28;;;;;;;4.53;2.30;;;;;;;14.04;100.00;102065.16;5273652;28;20394;-73
2023/09/25 06:21:59;;;;;;;4.47;2.17;;;;;;;14.11;100.00;102071.63;5275904;28;20044;-73
2023/09/25 06:24:31;;;;;;;4.88;2.00;;;;;;;14.17;100.00;102066.81;5276448;28;20033;-74
2023/09/25 06:27:02;;;;;;;4.15;1.85;;;;;;;14.23;100.00;102071.59;5269638;28;20487;-74
2023/09/25 06:29:33;;;;;;;3.47;2.10;;;;;;;14.26;100.00;102068.72;5269134;28;20029;-73
2023/09/25 06:32:05;;;;;;;3.28;2.20;;;;;;;14.31;100.00;102074.44;5271994;28;20032;-74
2023/09/25 06:34:36;;;;;;;6.65;2.30;;;;;;;14.29;98.87;102069.31;5272403;28;20027;-74
2023/09/25 06:37:08;;;;;;;3.88;2.05;;;;;;;14.40;99.20;102070.25;5272361;28;20125;-74
2023/09/25 06:39:39;;;;;;;5.05;2.20;;;;;;;14.44;99.13;102069.03;5267499;28;20509;-72
2023/09/25 06:42:10;;;;;;;4.57;2.00;;;;;;;14.47;98.10;102076.66;5270459;28;20210;-75
2023/09/25 06:44:42;;;;;;;4.53;2.38;;;;;;;14.59;99.23;102075.72;5271985;28;20040;-75
2023/09/25 06:47:13;;;;;;;6.80;2.05;;;;;;;14.63;99.54;102079.78;5274906;28;20031;-75
2023/09/25 06:49:44;;;;;;;4.43;2.15;;;;;;;14.67;98.26;102081.19;5271544;28;20107;-73
2023/09/25 06:52:16;;;;;;;4.22;2.33;;;;;;;14.71;98.47;102074.69;5270822;28;20531;-75
2023/09/25 06:54:47;;;;;;;4.80;2.28;;;;;;;14.78;97.92;102085.59;5271547;28;20070;-75
2023/09/25 06:57:18;;;;;;;4.30;2.20;;;;;;;14.83;97.59;102078.13;5270408;28;20024;-75
2023/09/25 06:59:49;;;;;;;3.97;2.08;;;;;;;14.91;97.78;102080.13;5272650;28;20044;-74
2023/09/25 07:02:21;;;;;;;4.15;1.83;;;;;;;14.94;97.27;102083.34;5269514;28;20028;-74
2023/09/25 07:04:52;;;;;;;3.00;2.28;;;;;;;15.06;93.93;102073.56;5272623;28;20441;-73
2023/09/25 07:07:23;;;;;;;2.80;1.77;;;;;;;15.11;94.63;102075.78;5270661;28;20039;-75
2023/09/25 07:09:55;;;;;;;5.43;1.90;;;;;;;15.19;92.86;102078.63;5272984;28;20036;-74
2023/09/25 07:12:27;;;;;;;4.47;1.83;;;;;;;15.32;93.45;102074.00;5274369;28;20379;-74
2023/09/25 07:15:01;;;;;;;3.85;2.10;;;;;;;15.39;91.38;102071.66;5269597;28;20050;-73
2023/09/25 07:17:34;;;;;;;4.40;1.98;;;;;;;15.44;90.94;102074.75;5272500;28;20020;-74
2023/09/25 07:20:06;;;;;;;3.70;2.07;;;;;;;15.48;91.13;102076.97;5268990;28;20128;-74
2023/09/25 07:22:37;;;;;;;3.95;2.03;;;;;;;15.55;92.27;102067.56;5273976;28;20559;-75
2023/09/25 07:25:09;;;;;;;4.32;1.95;;;;;;;15.70;91.35;102083.09;5270616;28;20084;-73
2023/09/25 07:27:40;;;;;;;3.70;2.00;;;;;;;15.72;89.52;102079.34;5268605;28;20031;-74
2023/09/25 07:30:11;;;;;;;3.42;1.75;;;;;;;15.82;88.87;102063.50;5265698;28;20051;-75
2023/09/25 07:32:43;;;;;;;5.35;2.20;;;;;;;15.90;87.86;102066.31;5270719;28;20051;-74
2023/09/25 07:35:15;;;;;;;4.32;2.17;;;;;;;16.01;87.45;102074.13;5273765;28;20086;-74
2023/09/25 07:37:47;;;;;;;4.13;1.93;;;;;;;16.12;86.67;102067.06;5270755;28;20049;-75
2023/09/25 07:40:19;;;;;;;3.67;1.70;;;;;;;16.19;86.23;102074.31;5272410;28;20502;-75
2023/09/25 07:42:50;;;;;;;2.60;1.85;;;;;;;16.28;87.59;102072.66;5270296;28;20048;-74
2023/09/25 07:45:25;;;;;;;2.80;1.60;;;;;;;16.34;83.97;102071.28;5270784;28;20028;-73
2023/09/25 07:47:57;;;;;;;3.90;1.90;;;;;;;16.43;83.45;102070.44;5274767;28;20037;-75
2023/09/25 07:50:28;;;;;;;3.70;1.77;;;;;;;16.55;83.70;102069.31;5273499;28;20039;-73
2023/09/25 07:53:00;;;;;;;3.55;1.98;;;;;;;16.63;82.03;102068.63;5271735;28;20472;-75
2023/09/25 07:55:31;;;;;;;3.00;2.00;;;;;;;16.69;80.97;102070.72;5269596;28;20937;-74
2023/09/25 07:58:04;;;;;;;3.05;1.80;;;;;;;16.73;81.70;102072.97;5269832;28;20362;-75
2023/09/25 08:00:37;;;;;;;4.38;2.28;;;;;;;16.80;80.60;102067.97;5269003;28;20036;-75
2023/09/25 08:03:09;;;;;;;3.80;1.55;;;;;;;16.78;79.49;102070.75;5273915;28;20032;-75
2023/09/25 08:05:40;;;;;;;2.92;1.73;;;;;;;16.90;80.50;102078.56;5267813;28;20035;-75
2023/09/25 08:08:12;;;;;;;3.97;2.00;;;;;;;16.92;79.96;102072.13;5270204;28;20485;-75
2023/09/25 08:10:47;;;;;;;2.58;1.67;;;;;;;16.94;79.26;102079.94;5271960;28;20062;-75
2023/09/25 08:13:18;;;;;;;4.55;1.95;;;;;;;16.96;78.00;102080.63;5265748;28;20047;-75
2023/09/25 08:15:51;;;;;;;5.90;2.10;;;;;;;17.02;79.92;102080.06;5271987;28;20029;-75
2023/09/25 08:18:22;;;;;;;4.77;2.13;;;;;;;17.07;79.49;102075.16;5269895;28;20535;-75
2023/09/25 08:20:53;;;;;;;2.88;1.73;;;;;;;17.12;81.18;102080.88;5270019;28;20056;-75
2023/09/25 08:23:25;;;;;;;5.20;2.17;;;;;;;17.15;80.35;102072.63;5269043;28;20016;-75
2023/09/25 08:25:57;;;;;;;3.08;1.92;;;;;;;17.23;80.87;102071.91;5266673;28;20115;-75
2023/09/25 08:28:29;;;;;;;3.80;1.52;;;;;;;17.31;80.00;102079.97;5266957;28;20028;-75
2023/09/25 08:31:00;;;;;;;3.83;1.48;;;;;;;17.38;78.51;102073.13;5268903;28;20039;-75
2023/09/25 08:33:31;;;;;;;3.63;1.80;;;;;;;17.47;78.74;102072.28;5269991;28;20053;-75
2023/09/25 08:36:03;;;;;;;3.03;1.90;;;;;;;17.56;78.78;102067.91;5270277;28;20033;-75
2023/09/25 08:38:34;;;;;;;2.40;1.67;;;;;;;17.75;78.79;102065.19;5268883;28;20034;-75
2023/09/25 08:41:06;;;;;;;3.50;1.87;;;;;;;17.90;80.01;102057.56;5269635;28;20147;-75
2023/09/25 08:43:40;;;;;;;3.50;2.05;;;;;;;17.98;77.14;102064.78;5267449;28;20751;-75
2023/09/25 08:46:13;;;;;;;3.85;1.70;;;;;;;18.05;73.95;102060.56;5266962;28;20089;-75
2023/09/25 08:48:45;;;;;;;3.72;2.22;;;;;;;18.15;76.88;102049.91;5270520;28;20020;-75
2023/09/25 08:51:17;;;;;;;4.32;1.50;;;;;;;18.31;75.50;102059.84;5268452;28;20078;-75
2023/09/25 08:53:48;;;;;;;6.10;1.90;;;;;;;18.41;74.03;102045.50;5268310;28;20061;-75
2023/09/25 08:56:20;;;;;;;3.05;1.85;;;;;;;18.46;73.26;102050.34;5270808;28;20431;-75
2023/09/25 08:58:53;;;;;;;3.45;1.50;;;;;;;18.55;73.34;102051.25;5268900;28;20037;-75
2023/09/25 09:01:24;;;;;;;4.47;2.00;;;;;;;18.65;71.54;102052.00;5269806;28;20429;-75
2023/09/25 09:03:56;;;;;;;5.07;1.88;;;;;;;18.80;72.14;102057.63;5270121;28;20360;-75
2023/09/25 09:06:27;;;;;;;4.13;2.00;;;;;;;18.91;73.05;102052.91;5269630;28;20027;-75
2023/09/25 09:08:58;;;;;;;3.60;1.90;;;;;;;18.99;69.28;102053.94;5269409;28;20169;-75
2023/09/25 09:11:30;;;;;;;2.95;1.65;;;;;;;19.13;70.68;102061.31;5267576;28;20016;-75
2023/09/25 09:14:01;;;;;;;3.97;1.90;;;;;;;19.25;67.61;102060.09;5270425;28;20131;-75
2023/09/25 09:16:32;;;;;;;4.88;1.80;;;;;;;19.31;68.47;102051.47;5268297;28;20032;-75
2023/09/25 09:19:06;;;;;;;3.60;1.85;;;;;;;19.32;68.54;102050.50;5269485;28;20032;-75
2023/09/25 09:21:43;;;;;;;3.60;1.60;;;;;;;19.31;69.09;102045.34;5272212;28;20460;-75
2023/09/25 09:24:21;;;;;;;3.55;1.80;;;;;;;19.34;69.91;102055.66;5273664;28;20188;-75
2023/09/25 09:26:52;;;;;;;3.75;1.83;;;;;;;19.22;70.78;102057.75;5268308;28;20066;-75
2023/09/25 09:29:23;;;;;;;6.37;2.37;;;;;;;19.20;69.91;102057.88;5271571;28;20036;-75
2023/09/25 09:31:58;;;;;;;3.63;1.70;;;;;;;19.24;72.88;102053.09;5272419;28;20290;-75
2023/09/25 09:34:29;;;;;;;3.95;1.80;;;;;;;19.14;72.20;102053.22;5273999;28;20047;-75
2023/09/25 09:37:01;;;;;;;2.50;1.48;;;;;;;19.31;71.98;102055.97;5273452;28;20020;-75
2023/09/25 09:39:36;;;;;;;4.23;1.87;;;;;;;19.45;73.58;102058.03;5273535;28;20047;-75
2023/09/25 09:42:09;;;;;;;3.13;1.50;;;;;;;19.47;72.91;102064.00;5274465;28;20502;-75
2023/09/25 09:44:40;;;;;;;4.35;1.70;;;;;;;19.74;74.21;102063.00;5273208;28;20032;-75
2023/09/25 09:47:15;;;;;;;3.15;1.73;;;;;;;19.86;69.89;102053.75;5272196;28;20017;-76
2023/09/25 09:49:48;;;;;;;2.72;1.50;;;;;;;19.84;70.52;102063.69;5272304;28;20036;-75
2023/09/25 09:52:20;;;;;;;4.33;1.90;;;;;;;19.98;70.99;102064.91;5273569;28;20490;-75
2023/09/25 09:54:51;;;;;;;4.28;2.03;;;;;;;20.02;70.62;102058.28;5273070;28;20287;-75
2023/09/25 09:57:23;;;;;;;3.65;1.48;;;;;;;20.15;71.39;102069.28;5274272;28;20032;-75
2023/09/25 09:59:55;;;;;;;3.70;1.83;;;;;;;20.17;72.95;102072.59;5273754;28;20382;-75
2023/09/25 10:02:30;;;;;;;4.97;1.67;;;;;;;20.18;72.75;102063.63;5274421;28;20427;-75
2023/09/25 10:05:03;;;;;;;3.20;1.50;;;;;;;20.27;72.07;102069.81;5273300;28;20032;-75
2023/09/25 10:08:05;;;;;;;3.63;1.67;;;;;;;20.61;71.39;102069.69;5272188;28;20039;-75
2023/09/25 10:11:16;;;;;;;2.58;1.50;;;;;;;20.68;70.72;102061.84;5271788;28;20039;-75
2023/09/25 10:13:47;;;;;;;2.92;1.63;;;;;;;20.44;68.08;102056.50;5269380;28;20040;-75
2023/09/25 10:16:19;;;;;;;3.75;1.75;;;;;;;20.58;69.74;102056.72;5271448;28;20035;-76
2023/09/25 10:18:52;;;;;;;3.67;1.55;;;;;;;20.67;67.53;102057.53;5273020;28;20020;-75
2023/09/25 10:21:23;;;;;;;2.72;1.52;;;;;;;20.81;66.71;102059.53;5273282;28;20060;-75
2023/09/25 10:23:56;;;;;;;3.10;1.80;;;;;;;20.93;65.20;102065.34;5271765;28;20166;-76
2023/09/25 10:26:33;;;;;;;3.67;1.48;;;;;;;20.87;62.62;102058.00;5272284;28;20035;-76
2023/09/25 10:29:15;;;;;;;3.47;1.35;;;;;;;21.07;64.00;102062.00;5287228;28;20251;-76
2023/09/25 10:31:47;;;;;;;2.20;1.40;;;;;;;20.92;61.74;102054.88;5269897;28;20040;-76
2023/09/25 10:34:21;;;;;;;3.90;1.40;;;;;;;21.10;63.77;102069.66;5271813;28;20610;-75
2023/09/25 10:36:59;;;;;;;4.32;1.73;;;;;;;21.22;63.49;102069.31;5266798;28;20032;-76
2023/09/25 10:39:31;;;;;;;2.80;1.48;;;;;;;21.11;61.03;102057.16;5272498;28;20485;-76
2023/09/25 10:42:08;;;;;;;3.27;1.60;;;;;;;21.28;63.03;102066.75;5271463;28;20038;-76
2023/09/25 10:44:40;;;;;;;3.80;1.27;;;;;;;21.27;63.17;102061.63;5271160;28;20036;-76
2023/09/25 10:47:11;;;;;;;3.50;1.40;;;;;;;21.45;63.17;102059.59;5273829;28;20209;-75
2023/09/25 10:49:42;;;;;;;3.53;1.50;;;;;;;21.47;62.22;102049.56;5269903;28;20042;-75
2023/09/25 10:52:16;;;;;;;2.87;1.70;;;;;;;21.58;61.37;102054.53;5267173;28;20079;-75
2023/09/25 10:54:48;;;;;;;3.38;1.80;;;;;;;21.50;59.71;102053.75;5270771;28;20497;-75
2023/09/25 10:57:19;;;;;;;3.53;1.63;;;;;;;21.62;60.82;102055.00;5270081;28;20048;-75
2023/09/25 10:59:50;;;;;;;3.53;1.60;;;;;;;21.76;62.25;102054.28;5270998;28;20500;-75
2023/09/25 11:02:22;;;;;;;2.60;1.40;;;;;;;21.87;61.46;102061.06;5271144;28;20210;-75
2023/09/25 11:04:53;;;;;;;2.30;1.23;;;;;;;21.91;59.54;102069.56;5269357;28;20037;-75
2023/09/25 11:07:26;;;;;;;4.00;1.57;;;;;;;21.94;58.61;102063.88;5268997;28;20021;-75
2023/09/25 11:09:57;;;;;;;;;;;;;;;22.67;59.06;102065.22;5269604;28;20059;-75
2023/09/25 11:12:30;;;;;;;3.13;1.50;;;;;;;22.08;59.95;102065.78;5270973;28;20093;-75
2023/09/25 11:15:08;;;;;;;2.67;1.40;;;;;;;22.11;58.08;102073.44;5271246;28;20278;-75
2023/09/25 11:17:39;;;;;;;2.10;1.00;;;;;;;22.26;60.37;102066.34;5269619;28;20538;-75
2023/09/25 11:20:18;;;;;;;2.73;1.43;;;;;;;22.41;59.37;102065.59;5271212;28;20036;-75
2023/09/25 11:22:49;;;;;;;3.80;1.70;;;;;;;22.42;59.80;102062.72;5273401;28;20077;-75
2023/09/25 11:25:20;;;;;;;4.47;1.30;;;;;;;22.48;57.69;102070.03;5270756;28;20020;-75
2023/09/25 11:27:53;;;;;;;2.90;1.50;;;;;;;22.65;56.11;102068.06;5271083;28;20083;-74
2023/09/25 11:30:29;;;;;;;;;;;;;;;23.39;56.08;102060.16;5273348;28;20068;-75
2023/09/25 11:33:08;;;;;;;2.83;1.35;;;;;;;22.92;58.71;102068.50;5271993;28;19912;-74
2023/09/25 11:35:39;;;;;;;4.00;1.27;;;;;;;22.87;59.04;102069.03;5272426;28;20477;-74
2023/09/25 11:38:18;;;;;;;3.20;1.63;;;;;;;22.90;54.36;102070.53;5270049;28;20036;-74
2023/09/25 11:40:50;;;;;;;4.20;1.40;;;;;;;22.92;54.77;102072.03;5269721;28;20036;-74
2023/09/25 11:43:25;;;;;;;4.00;1.58;;;;;;;23.13;57.08;102070.50;5270526;28;20023;-75
2023/09/25 11:45:56;;;;;;;5.55;1.52;;;;;;;23.12;54.46;102069.66;5270939;28;20109;-75